createdAt,value
2022-12-05T00:00:36.990Z,977.03
2022-12-05T00:06:01.996Z,603.08
2022-12-05T00:27:26.649Z,1054.20
2022-12-05T00:32:51.694Z,1279.93
2022-12-05T00:38:19.646Z,627.53
2022-12-05T00:43:47.814Z,1086.80
2022-12-05T00:49:13.662Z,1144.60
2022-12-05T00:54:38.653Z,686.00
2022-12-05T01:00:05.638Z,1113.13
2022-12-05T01:05:30.674Z,744.78
2022-12-05T01:10:54.673Z,1113.57
2022-12-05T01:16:27.829Z,565.92
2022-12-05T01:21:51.651Z,847.65
2022-12-05T01:27:22.644Z,657.88
2022-12-05T01:32:50.676Z,397.05
2022-12-05T01:38:14.835Z,717.80
2022-12-05T01:43:40.629Z,376.88
2022-12-05T01:49:10.636Z,521.03
2022-12-05T01:54:36.668Z,765.80
2022-12-05T02:00:04.658Z,255.27
2022-12-05T02:05:38.656Z,373.63
2022-12-05T02:11:05.714Z,697.30
2022-12-05T02:16:40.744Z,542.20
2022-12-05T02:22:31.667Z,749.10
2022-12-05T02:28:31.763Z,907.03
2022-12-05T02:34:02.796Z,758.47
2022-12-05T02:39:36.661Z,313.40
2022-12-05T02:45:05.679Z,824.30
2022-12-05T02:50:37.697Z,704.53
2022-12-05T02:56:02.744Z,901.55
2022-12-05T03:01:28.783Z,753.30
2022-12-05T03:07:00.675Z,764.65
2022-12-05T03:12:29.718Z,704.03
2022-12-05T03:18:00.683Z,775.35
2022-12-05T03:23:38.804Z,774.50
2022-12-05T03:29:18.697Z,897.97
2022-12-05T03:34:52.710Z,904.38
2022-12-05T03:40:35.786Z,802.95
2022-12-05T03:46:04.878Z,900.60
2022-12-05T03:51:32.697Z,846.15
2022-12-05T03:57:04.903Z,898.40
2022-12-05T04:02:35.706Z,810.28
2022-12-05T04:08:02.799Z,837.78
2022-12-05T04:13:36.684Z,788.08
2022-12-05T04:19:15.913Z,615.13
2022-12-05T04:24:54.740Z,760.05
2022-12-05T04:30:25.715Z,291.88
2022-12-05T04:35:55.729Z,439.17
2022-12-05T04:41:23.746Z,349.95
2022-12-05T04:46:55.035Z,317.20
2022-12-05T04:52:23.726Z,519.45
2022-12-05T04:57:54.734Z,380.63
2022-12-05T05:03:36.764Z,246.73
2022-12-05T05:09:04.717Z,208.73
2022-12-05T05:14:28.752Z,209.85
2022-12-05T05:19:57.046Z,598.88
2022-12-05T05:25:28.763Z,282.63
2022-12-05T05:30:53.792Z,223.40
2022-12-05T05:36:23.720Z,230.07
2022-12-05T05:41:48.742Z,227.10
2022-12-05T05:47:12.756Z,153.07
2022-12-05T05:52:42.776Z,84.00
2022-12-05T05:58:06.754Z,385.45
2022-12-05T06:03:31.873Z,302.45
2022-12-05T06:09:01.768Z,344.20
2022-12-05T06:14:27.005Z,95.18
2022-12-05T06:19:50.781Z,106.75
2022-12-05T06:25:19.774Z,249.00
2022-12-05T06:30:43.779Z,161.90
2022-12-05T06:36:13.815Z,180.25
2022-12-05T06:41:41.790Z,202.52
2022-12-05T06:47:06.781Z,137.13
2022-12-05T06:52:30.790Z,181.38
2022-12-05T06:57:58.787Z,184.50
2022-12-05T07:03:22.802Z,129.95
2022-12-05T07:08:47.785Z,138.38
2022-12-05T07:14:38.777Z,94.20
2022-12-05T07:20:02.891Z,131.23
2022-12-05T07:25:29.800Z,86.10
2022-12-05T07:30:57.782Z,183.88
2022-12-05T07:36:25.870Z,70.72
2022-12-05T07:41:50.856Z,58.05
2022-12-05T07:47:18.961Z,55.85
2022-12-05T07:52:43.938Z,47.75
2022-12-05T07:58:07.780Z,41.88
2022-12-05T08:03:35.813Z,45.58
2022-12-05T08:09:00.802Z,42.63
2022-12-05T08:14:26.035Z,39.10
2022-12-05T08:19:52.776Z,38.35
2022-12-05T08:25:18.823Z,34.08
2022-12-05T08:30:42.826Z,32.45
2022-12-05T08:36:12.830Z,31.77
2022-12-05T08:41:37.851Z,31.33
2022-12-05T08:47:02.795Z,28.27
2022-12-05T08:52:30.801Z,28.67
2022-12-05T08:57:55.823Z,27.00
2022-12-05T09:03:19.813Z,25.65
2022-12-05T09:08:48.808Z,27.90
2022-12-05T09:14:14.816Z,25.00
2022-12-05T09:19:39.812Z,24.48
2022-12-05T09:25:06.847Z,27.25
2022-12-05T09:30:31.823Z,25.27
2022-12-05T09:35:55.844Z,27.10
2022-12-05T09:41:48.870Z,46.65
2022-12-05T09:47:17.929Z,190.02
2022-12-05T09:52:45.869Z,449.17
2022-12-05T09:58:15.835Z,188.80
2022-12-05T10:03:50.865Z,344.63
2022-12-05T10:09:29.072Z,38.58
2022-12-05T10:15:07.952Z,27.83
2022-12-05T10:20:36.868Z,26.65
2022-12-05T10:26:06.856Z,22.77
2022-12-05T10:31:38.995Z,19.55
2022-12-05T10:37:07.863Z,18.95
2022-12-05T10:42:41.871Z,16.88
2022-12-05T10:48:09.881Z,16.88
2022-12-05T10:53:38.935Z,17.85
2022-12-05T10:59:04.856Z,17.42
2022-12-05T11:04:44.920Z,16.65
2022-12-05T11:10:24.959Z,17.33
2022-12-05T11:15:56.008Z,14.93
2022-12-05T11:21:30.852Z,14.50
2022-12-05T11:27:02.095Z,13.35
2022-12-05T11:32:31.013Z,75.70
2022-12-05T11:38:02.868Z,15.40
2022-12-05T11:43:52.903Z,15.00
2022-12-05T11:49:31.871Z,14.35
2022-12-05T11:55:06.541Z,12.77
2022-12-05T12:00:36.906Z,13.18
2022-12-05T12:06:14.900Z,13.95
2022-12-05T12:11:47.880Z,12.25
2022-12-05T12:17:23.965Z,11.18
2022-12-05T12:23:09.015Z,10.40
2022-12-05T12:28:54.895Z,11.50
2022-12-05T12:34:38.872Z,11.95
2022-12-05T12:40:07.905Z,12.52
2022-12-05T12:45:56.955Z,10.55
2022-12-05T12:51:25.897Z,12.45
2022-12-05T12:57:08.172Z,11.10
2022-12-05T13:02:41.967Z,10.75
2022-12-05T13:08:13.995Z,9.90
2022-12-05T13:13:42.920Z,10.43
2022-12-05T13:19:11.903Z,10.68
2022-12-05T13:24:40.925Z,10.43
2022-12-05T13:30:13.553Z,9.95
2022-12-05T13:35:59.923Z,10.60
2022-12-05T13:41:37.916Z,11.38
2022-12-05T13:47:05.972Z,11.75
2022-12-05T13:52:36.998Z,11.90
2022-12-05T13:58:04.946Z,14.57
2022-12-05T14:04:04.952Z,12.60
2022-12-05T14:10:04.935Z,12.75
2022-12-05T14:15:41.939Z,11.93
2022-12-05T14:21:21.934Z,13.35
2022-12-05T14:27:15.003Z,13.35
2022-12-05T14:32:43.977Z,12.68
2022-12-05T14:38:13.002Z,12.95
2022-12-05T14:43:46.952Z,11.95
2022-12-05T14:49:48.449Z,12.73
2022-12-05T14:55:25.074Z,11.70
2022-12-05T15:00:56.056Z,13.05
2022-12-05T15:06:26.979Z,12.93
2022-12-05T15:11:51.969Z,11.77
2022-12-05T15:17:20.037Z,12.52
2022-12-05T15:22:46.967Z,14.45
2022-12-05T15:28:21.955Z,11.75
2022-12-05T15:34:01.067Z,14.68
2022-12-05T15:39:34.968Z,13.27
2022-12-05T15:45:00.270Z,16.83
2022-12-05T15:50:32.025Z,26.33
2022-12-05T15:55:59.942Z,22.58
2022-12-05T16:01:29.075Z,20.23
2022-12-05T16:06:59.019Z,20.10
2022-12-05T16:12:36.996Z,18.83
2022-12-05T16:18:04.981Z,19.42
2022-12-05T16:23:44.004Z,20.13
2022-12-05T16:29:15.975Z,107.70
2022-12-05T16:34:44.087Z,456.95
2022-12-05T16:40:13.235Z,720.97
2022-12-05T16:45:48.987Z,785.85
2022-12-05T16:51:35.020Z,872.28
2022-12-05T16:57:03.041Z,600.67
2022-12-05T17:02:31.088Z,734.10
2022-12-05T17:07:56.093Z,95.63
2022-12-05T17:13:23.067Z,796.72
2022-12-05T17:18:48.038Z,1460.70
2022-12-05T17:24:13.033Z,867.53
2022-12-05T17:29:41.009Z,479.73
2022-12-05T17:35:07.077Z,348.08
2022-12-05T17:40:32.024Z,723.08
2022-12-05T17:46:01.011Z,344.25
2022-12-05T17:51:27.012Z,55.58
2022-12-05T17:56:52.037Z,34.67
2022-12-05T18:02:22.055Z,29.10
2022-12-05T18:07:46.190Z,22.48
2022-12-05T18:13:11.017Z,24.20
2022-12-05T18:18:39.027Z,23.38
2022-12-05T18:24:04.032Z,20.90
2022-12-05T18:29:35.031Z,22.30
2022-12-05T18:35:08.677Z,22.23
2022-12-05T18:40:37.117Z,18.77
2022-12-05T18:46:05.193Z,20.35
2022-12-05T18:51:35.036Z,18.88
2022-12-05T18:57:00.042Z,19.70
2022-12-05T19:02:25.095Z,19.20
2022-12-05T19:07:53.085Z,17.85
2022-12-05T19:13:18.206Z,17.63
2022-12-05T19:18:44.057Z,16.40
2022-12-05T19:24:12.050Z,20.80
2022-12-05T19:29:43.060Z,17.15
2022-12-05T19:35:08.055Z,16.70
2022-12-05T19:40:35.058Z,15.88
2022-12-05T19:46:00.207Z,13.07
2022-12-05T19:51:25.097Z,13.23
2022-12-05T19:56:53.144Z,13.50
2022-12-05T20:02:17.149Z,14.10
2022-12-05T20:07:42.265Z,17.95
2022-12-05T20:13:44.657Z,16.73
2022-12-05T20:18:55.097Z,14.85
2022-12-05T20:24:21.497Z,11.68
2022-12-05T20:29:55.084Z,12.30
2022-12-05T20:35:24.289Z,12.13
2022-12-05T20:40:49.075Z,10.60
2022-12-05T20:46:20.223Z,19.10
2022-12-05T20:51:46.119Z,13.57
2022-12-05T20:57:11.217Z,10.45
2022-12-05T21:02:38.151Z,10.85
2022-12-05T21:08:09.207Z,11.43
2022-12-05T21:13:41.270Z,13.67
2022-12-05T21:19:09.094Z,12.63
2022-12-05T21:24:35.092Z,9.57
2022-12-05T21:30:06.137Z,9.93
2022-12-05T21:35:34.133Z,9.50
2022-12-05T21:40:58.113Z,9.98
2022-12-05T21:46:23.418Z,9.52
2022-12-05T21:51:50.104Z,9.25
2022-12-05T21:57:15.149Z,9.07
2022-12-05T22:02:40.148Z,10.85
2022-12-05T22:08:08.191Z,10.80
2022-12-05T22:13:32.117Z,11.50
2022-12-05T22:18:57.106Z,11.98
2022-12-05T22:24:24.250Z,11.10
2022-12-05T22:29:55.136Z,10.52
2022-12-05T22:35:20.157Z,12.10
2022-12-05T22:40:47.134Z,12.57
2022-12-05T22:46:16.452Z,11.68
2022-12-05T22:51:40.146Z,10.70
2022-12-05T22:57:08.132Z,10.18
2022-12-05T23:02:32.172Z,11.05
2022-12-05T23:07:57.196Z,54.60
2022-12-05T23:13:26.283Z,114.45
2022-12-05T23:18:58.149Z,777.10
2022-12-05T23:24:24.130Z,710.05
2022-12-05T23:29:58.406Z,286.30
2022-12-05T23:35:24.159Z,541.13
2022-12-05T23:40:48.327Z,593.03
2022-12-05T23:46:17.215Z,221.70
2022-12-05T23:51:47.171Z,857.03
2022-12-05T23:57:17.277Z,308.50
